Tuesday, January 16, 2018, 11:54 AM GMT
Back to Local

CWPK, Parent, Que.

Location: , , Canada Lat: 47.917
Local Time: 11:54 AM GMT (11:54 GMT) Lon: -74.617
Time Zone: GMT Elev: 1450 ft

Show me the last for .
Show Decoded

2018-01-16 11:00 METAR CWPK 161100Z AUTO 11001KT M20/M22 RMK AO1 SOG 20 6018 SLP321 T12001215 =
2018-01-16 10:00 METAR CWPK 161000Z AUTO 11002KT M20/M23 RMK AO1 SOG 20 8021 SLP323 T12031229 =
2018-01-16 09:00 METAR CWPK 160900Z AUTO 08002KT M21/M23 RMK AO1 SOG 20 8013 SLP331 T12071234 =
2018-01-16 08:00 METAR CWPK 160800Z AUTO 10002KT M21/M23 RMK AO1 SOG 20 6013 SLP338 T12061233 =
2018-01-16 07:00 METAR CWPK 160700Z AUTO 11003KT M20/M23 RMK AO1 SOG 20 6015 SLP343 T12041232 =
2018-01-16 06:00 METAR CWPK 160600Z AUTO 08003KT M20/M23 RMK AO1 SOG 20 8020 SLP344 T12011229 =
2018-01-16 05:00 METAR CWPK 160500Z AUTO 13003KT M20/M23 RMK AO1 SOG 20 6023 SLP352 T12021229 =
2018-01-16 04:00 METAR CWPK 160400Z AUTO 11001KT M21/M23 RMK AO1 SOG 20 7022 SLP361 T12051232 =
2018-01-16 03:00 METAR CWPK 160300Z AUTO 11002KT M21/M23 RMK AO1 SOG 19 8019 SLP371 T12061234 =
2018-01-16 02:00 METAR CWPK 160200Z AUTO 09003KT M21/M24 RMK AO1 SOG 19 6016 SLP385 T12081235 =
2018-01-16 01:00 METAR CWPK 160100Z AUTO 10002KT M22/M24 RMK AO1 SOG 19 6016 SLP394 T12171244 =
2018-01-16 00:00 METAR CWPK 160000Z AUTO 08002KT M21/M24 RMK AO1 SOG 19 7020 SLP397 T12141243 =
2018-01-15 23:00 METAR CWPK 152300Z AUTO 08003KT M20/M22 RMK AO1 SOG 20 8013 SLP403 T11971223 =
2018-01-15 22:00 METAR CWPK 152200Z AUTO 08002KT M19/M22 RMK AO1 SOG 20 8011 SLP409 T11881217 =
2018-01-15 21:00 METAR CWPK 152100Z AUTO 07002KT M17/M20 RMK AO1 SOG 20 6013 SLP415 T11681204 =
2018-01-15 20:00 METAR CWPK 152000Z AUTO 08004KT M16/M20 RMK AO1 SOG 20 6019 SLP415 T11621204 =
2018-01-15 19:00 METAR CWPK 151900Z AUTO 09004KT M16/M21 RMK AO1 SOG 20 6026 SLP419 T11631210 =
2018-01-15 18:00 METAR CWPK 151800Z AUTO 12004KT M17/M22 RMK AO1 SOG 20 8022 SLP429 T11691220 =
2018-01-15 17:00 METAR CWPK 151700Z AUTO 11005KT M18/M22 RMK AO1 SOG 19 8018 SLP435 T11761222 =
2018-01-15 16:00 METAR CWPK 151600Z AUTO 04001KT M20/M23 RMK AO1 SOG 19 8008 SLP448 T11951230 =
2018-01-15 15:00 METAR CWPK 151500Z AUTO 00000KT M24/M27 RMK AO1 SOG 19 8004 SLP456 T12381269 =
2018-01-15 14:00 METAR CWPK 151400Z AUTO 07002KT M28/M32 RMK AO1 SOG 20 8001 SLP461 T12821318 =
2018-01-15 13:00 METAR CWPK 151300Z AUTO 07002KT M30/M34 RMK AO1 SOG 20 0004 SLP462 T12991336 =
2018-01-15 12:00 METAR CWPK 151200Z AUTO 06002KT M31/M34 RMK AO1 SOG 20 1012 SLP463 T13051343 =

Support USWX by starting your Amazon purchase here.